Time;durP1;ratioP1;P1;durP2;ratioP2;P2;SDS_P1;SDS_P2;PMS_P1;PMS_P2;Temp;Humidity;BMP_temperature;BMP_pressure;BME280_temperature;BME280_humidity;BME280_pressure;Samples;Min_cycle;Max_cycle;Signal;HPM_P1;HPM_P2
2022/05/10 00:01:59;;;;;;;0.70;0.70;;;;;;;28.03;31.04;97185.72;5080425;28;20036;-31
2022/05/10 00:04:24;;;;;;;0.30;0.30;;;;;;;28.03;30.87;97185.72;5080788;28;20732;-32
2022/05/10 00:06:49;;;;;;;0.50;0.50;;;;;;;28.03;31.10;97177.81;5081837;28;20039;-30
2022/05/10 00:09:20;;;;;;;0.47;0.43;;;;;;;28.02;30.87;97173.50;5082116;28;20706;-31
2022/05/10 00:11:46;;;;;;;0.65;0.47;;;;;;;28.03;31.13;97177.81;5084776;28;20479;-31
2022/05/10 00:14:11;;;;;;;0.50;0.50;;;;;;;28.02;30.90;97178.75;5082914;28;20150;-30
2022/05/10 00:16:41;;;;;;;0.40;0.40;;;;;;;28.00;31.21;97172.75;5081698;28;20074;-30
2022/05/10 00:19:06;;;;;;;0.40;0.40;;;;;;;28.02;30.96;97181.41;5083256;28;20032;-30
2022/05/10 00:21:32;;;;;;;0.65;0.57;;;;;;;28.02;30.90;97176.13;5080699;28;20032;-31
2022/05/10 00:23:57;;;;;;;0.40;0.40;;;;;;;28.02;30.97;97181.41;5067577;28;20557;-38
2022/05/10 00:26:23;;;;;;;0.50;0.50;;;;;;;28.01;30.99;97174.44;5083425;28;20035;-32
2022/05/10 00:28:48;;;;;;;0.50;0.50;;;;;;;28.01;30.80;97174.44;5081054;28;20035;-31
2022/05/10 00:31:13;;;;;;;0.50;0.50;;;;;;;28.01;30.93;97177.06;5080748;28;20036;-29
2022/05/10 00:33:39;;;;;;;0.57;0.57;;;;;;;28.00;30.91;97181.47;5080542;28;20709;-30
2022/05/10 00:36:05;;;;;;;0.80;0.52;;;;;;;28.00;30.87;97172.75;5081941;28;20039;-30
2022/05/10 00:38:34;;;;;;;0.50;0.50;;;;;;;28.00;31.04;97178.00;5078756;28;20076;-30
2022/05/10 00:41:05;;;;;;;0.60;0.60;;;;;;;28.00;30.91;97172.75;5082667;28;20035;-30
2022/05/10 00:43:35;;;;;;;0.50;0.50;;;;;;;27.99;30.95;97173.69;5066331;28;20624;-30
2022/05/10 00:46:05;;;;;;;0.45;0.45;;;;;;;27.99;30.89;97177.16;5069604;28;20043;-31
2022/05/10 00:48:52;;;;;;;0.73;0.50;;;;;;;27.98;30.85;97164.06;5083250;28;20489;-31
2022/05/10 00:51:36;;;;;;;0.50;0.50;;;;;;;27.98;30.84;97169.31;5076690;28;20032;-32
2022/05/10 00:54:20;;;;;;;0.50;0.50;;;;;;;27.99;30.92;97165.78;5081987;28;20038;-31
2022/05/10 00:57:08;;;;;;;0.75;0.60;;;;;;;27.97;31.07;97173.78;5083049;28;20059;-33
2022/05/10 00:59:45;;;;;;;0.47;0.43;;;;;;;27.97;30.84;97172.91;5080389;28;20024;-35
2022/05/10 01:02:15;;;;;;;0.50;0.50;;;;;;;27.97;31.02;97167.63;5081930;28;20146;-30
2022/05/10 01:04:47;;;;;;;0.85;0.57;;;;;;;27.97;30.86;97168.50;5079577;28;20032;-30
2022/05/10 01:07:23;;;;;;;0.20;0.20;;;;;;;27.96;31.05;97164.16;5081376;28;20036;-31
2022/05/10 01:09:56;;;;;;;0.50;0.50;;;;;;;27.97;30.97;97157.09;5083538;28;20036;-32
2022/05/10 01:12:42;;;;;;;0.45;0.45;;;;;;;27.96;30.93;97156.25;5082793;28;20028;-30
2022/05/10 01:15:19;;;;;;;0.85;0.50;;;;;;;27.97;30.91;97157.09;5075750;28;20036;-31
2022/05/10 01:17:44;;;;;;;0.47;0.47;;;;;;;27.96;31.02;97142.25;5083783;28;20044;-30
2022/05/10 01:20:20;;;;;;;0.57;0.50;;;;;;;27.96;31.00;97147.50;5084503;28;20047;-30
2022/05/10 01:23:24;;;;;;;0.40;0.40;;;;;;;27.95;30.98;97148.44;5081902;28;20282;-31
2022/05/10 01:26:23;;;;;;;0.77;0.57;;;;;;;27.94;30.93;97142.31;5080621;28;20081;-32
2022/05/10 01:28:51;;;;;;;0.52;0.50;;;;;;;27.95;30.88;97135.28;5085097;28;20020;-29
2022/05/10 01:31:24;;;;;;;0.52;0.52;;;;;;;27.94;30.82;97131.78;5087074;28;20035;-30
2022/05/10 01:33:53;;;;;;;0.60;0.60;;;;;;;27.93;30.97;97130.09;5083829;28;20897;-30
2022/05/10 01:36:24;;;;;;;0.43;0.43;;;;;;;27.94;30.95;97125.66;5066956;28;20082;-30
2022/05/10 01:39:08;;;;;;;0.70;0.60;;;;;;;27.94;30.88;97125.66;5084756;28;20387;-30
2022/05/10 01:41:51;;;;;;;0.50;0.50;;;;;;;27.94;30.94;97125.66;5084760;28;20034;-30
2022/05/10 01:44:42;;;;;;;0.40;0.40;;;;;;;27.93;30.97;97124.81;5085151;28;20549;-32
2022/05/10 01:47:13;;;;;;;0.32;0.32;;;;;;;27.93;30.85;97127.47;5084672;28;20042;-30
2022/05/10 01:49:49;;;;;;;0.32;0.32;;;;;;;27.92;30.85;97123.97;5084616;28;20065;-34
2022/05/10 01:52:15;;;;;;;0.47;0.47;;;;;;;27.92;30.83;97121.34;5084907;28;20070;-30
2022/05/10 01:54:40;;;;;;;1.00;0.40;;;;;;;27.93;31.00;97114.28;5083180;28;20089;-33
2022/05/10 01:57:13;;;;;;;0.50;0.50;;;;;;;27.91;30.96;97114.38;5081101;28;20031;-31
2022/05/10 01:59:39;;;;;;;0.85;0.47;;;;;;;27.92;30.96;97118.69;5068319;28;20038;-30
2022/05/10 02:02:05;;;;;;;0.40;0.40;;;;;;;27.91;31.01;97122.28;5083413;28;20374;-30
2022/05/10 02:04:33;;;;;;;0.60;0.60;;;;;;;27.91;30.81;97122.28;5083648;28;20038;-34
2022/05/10 02:07:10;;;;;;;1.08;0.50;;;;;;;27.92;30.98;97120.50;5066911;28;20078;-31
2022/05/10 02:09:46;;;;;;;0.65;0.57;;;;;;;27.92;30.95;97113.44;5083367;28;20324;-29
2022/05/10 02:12:13;;;;;;;0.50;0.50;;;;;;;27.91;30.89;97116.16;5086929;28;20031;-31
2022/05/10 02:14:56;;;;;;;0.88;0.60;;;;;;;27.91;30.96;97108.25;5080866;28;20077;-32
2022/05/10 02:17:42;;;;;;;0.60;0.50;;;;;;;27.90;30.97;97107.41;5087606;28;20059;-32
2022/05/10 02:20:34;;;;;;;0.60;0.60;;;;;;;27.90;30.92;97112.69;5086755;28;20032;-31
2022/05/10 02:23:01;;;;;;;0.50;0.50;;;;;;;27.91;30.82;97118.78;5084532;28;20023;-31
2022/05/10 02:25:30;;;;;;;0.55;0.55;;;;;;;27.91;30.94;97109.09;5079584;28;20115;-31
2022/05/10 02:27:57;;;;;;;0.30;0.30;;;;;;;27.90;30.78;97104.78;5080920;28;20028;-38
2022/05/10 02:30:24;;;;;;;0.50;0.50;;;;;;;27.88;30.87;97106.63;5102135;27;20952;-30
2022/05/10 02:33:07;;;;;;;0.40;0.40;;;;;;;27.89;30.87;97113.59;5069674;28;20024;-31
2022/05/10 02:35:54;;;;;;;0.45;0.45;;;;;;;27.89;30.83;97103.06;5084502;28;20075;-29
2022/05/10 02:38:23;;;;;;;0.40;0.40;;;;;;;27.90;30.84;97111.81;5083469;28;20087;-33
2022/05/10 02:40:51;;;;;;;0.43;0.43;;;;;;;27.88;30.76;97098.75;5084622;28;20107;-32
2022/05/10 02:43:26;;;;;;;0.32;0.32;;;;;;;27.88;30.78;97101.38;5067303;28;20043;-30
2022/05/10 02:45:54;;;;;;;0.60;0.60;;;;;;;27.88;30.85;97098.75;5079886;28;20781;-35
2022/05/10 02:48:33;;;;;;;0.40;0.40;;;;;;;27.88;30.91;97098.75;5083902;28;20616;-32
2022/05/10 02:50:58;;;;;;;0.55;0.40;;;;;;;27.88;30.91;97101.38;5084935;28;20769;-31
2022/05/10 02:53:24;;;;;;;0.50;0.50;;;;;;;27.88;31.01;97096.09;5083597;28;20032;-30
2022/05/10 02:55:54;;;;;;;0.30;0.30;;;;;;;27.87;30.97;97094.41;5081588;28;20032;-32
2022/05/10 02:58:42;;;;;;;0.40;0.40;;;;;;;27.88;30.91;97100.53;5083979;28;20051;-33
2022/05/10 03:01:15;;;;;;;0.50;0.50;;;;;;;27.87;30.75;97094.41;5086289;28;20076;-32
2022/05/10 03:03:40;;;;;;;0.60;0.60;;;;;;;27.88;30.75;97090.84;5066388;28;20028;-32
2022/05/10 03:06:06;;;;;;;0.55;0.47;;;;;;;27.88;30.73;97090.00;5086225;28;20449;-30
2022/05/10 03:08:31;;;;;;;0.47;0.47;;;;;;;27.88;30.87;97096.09;5083677;28;20935;-32
2022/05/10 03:10:57;;;;;;;0.47;0.47;;;;;;;27.86;30.83;97092.72;5082761;28;21138;-30
2022/05/10 03:13:22;;;;;;;0.43;0.40;;;;;;;27.87;30.81;97094.41;5083311;28;20591;-30
2022/05/10 03:15:47;;;;;;;0.52;0.52;;;;;;;27.87;30.85;97089.16;5084468;28;20820;-30
2022/05/10 03:18:13;;;;;;;0.47;0.47;;;;;;;27.86;30.89;97090.09;5083830;28;20116;-31
2022/05/10 03:20:38;;;;;;;0.68;0.68;;;;;;;27.86;30.91;97100.63;5083270;28;20039;-30
2022/05/10 03:23:04;;;;;;;0.80;0.50;;;;;;;27.86;30.79;97091.88;5083938;28;20028;-32
2022/05/10 03:25:30;;;;;;;0.95;0.60;;;;;;;27.86;30.70;97086.59;5084138;28;20437;-31
2022/05/10 03:27:58;;;;;;;0.30;0.30;;;;;;;27.85;30.80;97090.16;5067326;28;20039;-30
2022/05/10 03:30:27;;;;;;;0.40;0.40;;;;;;;27.85;30.71;97096.31;5083637;28;20741;-30
2022/05/10 03:32:53;;;;;;;0.40;0.40;;;;;;;27.84;30.78;97099.84;5082870;28;20490;-30
2022/05/10 03:35:18;;;;;;;0.40;0.40;;;;;;;27.85;30.88;97093.66;5083918;28;20080;-30
2022/05/10 03:37:44;;;;;;;0.60;0.60;;;;;;;27.83;30.63;97087.63;5082100;28;20062;-31
2022/05/10 03:40:10;;;;;;;0.40;0.40;;;;;;;27.86;30.71;97098.00;5080231;28;20024;-33
2022/05/10 03:42:42;;;;;;;0.60;0.60;;;;;;;27.85;30.77;97093.66;5082733;28;20032;-31
2022/05/10 03:45:08;;;;;;;0.40;0.40;;;;;;;27.84;30.89;97084.03;5082246;28;20024;-30
2022/05/10 03:47:34;;;;;;;0.40;0.40;;;;;;;27.85;30.78;97090.16;5082352;28;20073;-30
2022/05/10 03:49:59;;;;;;;0.40;0.40;;;;;;;27.84;30.76;97089.31;5084724;28;20440;-33
2022/05/10 03:52:24;;;;;;;0.40;0.40;;;;;;;27.85;30.71;97090.16;5083551;28;20042;-31
2022/05/10 03:54:50;;;;;;;0.30;0.30;;;;;;;27.84;30.79;97089.31;5080840;28;20062;-32
2022/05/10 03:57:15;;;;;;;0.38;0.38;;;;;;;27.84;30.87;97088.47;5082866;28;20497;-33
2022/05/10 03:59:43;;;;;;;0.40;0.40;;;;;;;27.83;30.81;97087.63;5082858;28;20024;-31
2022/05/10 04:02:10;;;;;;;0.35;0.35;;;;;;;27.84;30.70;97089.31;5082039;28;20085;-32
2022/05/10 04:04:36;;;;;;;0.40;0.40;;;;;;;27.83;30.66;97087.63;5082050;28;20031;-32
2022/05/10 04:07:01;;;;;;;0.35;0.35;;;;;;;27.84;30.83;97093.75;5081494;28;20406;-36
2022/05/10 04:09:26;;;;;;;0.60;0.47;;;;;;;27.84;30.67;97091.13;5083206;28;20028;-31
2022/05/10 04:11:52;;;;;;;0.47;0.47;;;;;;;27.83;30.68;97087.63;5083007;28;20023;-31
2022/05/10 04:14:17;;;;;;;0.40;0.40;;;;;;;27.84;30.67;97094.56;5084060;28;20040;-32
2022/05/10 04:16:43;;;;;;;0.40;0.40;;;;;;;27.82;30.65;97085.94;5081442;28;20626;-31
2022/05/10 04:19:08;;;;;;;0.30;0.30;;;;;;;27.83;30.80;97085.00;5082166;28;20723;-30
2022/05/10 04:21:34;;;;;;;0.43;0.38;;;;;;;27.83;30.82;97078.88;5084480;28;20032;-33
2022/05/10 04:23:59;;;;;;;0.50;0.50;;;;;;;27.83;30.75;97085.00;5083780;28;20023;-30
2022/05/10 04:26:25;;;;;;;0.60;0.35;;;;;;;27.83;30.63;97081.50;5083237;28;20048;-30
2022/05/10 04:28:51;;;;;;;0.40;0.40;;;;;;;27.82;30.63;97078.03;5079919;28;20019;-30
2022/05/10 04:31:17;;;;;;;0.57;0.50;;;;;;;27.82;30.82;97080.66;5082180;27;20036;-32
2022/05/10 04:33:42;;;;;;;0.43;0.43;;;;;;;27.82;30.74;97085.06;5082029;28;20447;-31
2022/05/10 04:36:08;;;;;;;0.50;0.50;;;;;;;27.82;30.65;97080.66;5084911;28;20389;-31
2022/05/10 04:38:34;;;;;;;0.50;0.50;;;;;;;27.82;30.70;97085.06;5082148;28;20054;-29
2022/05/10 04:43:43;;;;;;;0.73;0.60;;;;;;;27.83;30.75;97085.00;5081517;28;20113;-30
2022/05/10 04:46:09;;;;;;;0.73;0.60;;;;;;;27.83;30.75;97085.00;5080970;28;20809;-30
2022/05/10 04:48:34;;;;;;;0.50;0.50;;;;;;;27.82;30.83;97091.19;5081709;28;20030;-31
2022/05/10 04:51:00;;;;;;;0.50;0.45;;;;;;;27.83;30.81;97087.63;5081487;28;20058;-32
2022/05/10 04:53:26;;;;;;;0.50;0.50;;;;;;;27.83;30.84;97082.34;5080734;28;20028;-31
2022/05/10 04:55:51;;;;;;;0.60;0.60;;;;;;;27.84;30.56;97083.22;5081224;28;20122;-31
2022/05/10 04:58:16;;;;;;;1.05;0.50;;;;;;;27.83;30.79;97079.72;5079591;28;20481;-31
2022/05/10 05:00:42;;;;;;;0.57;0.57;;;;;;;27.84;30.66;97084.03;5078901;28;20801;-32
2022/05/10 05:03:07;;;;;;;0.55;0.40;;;;;;;27.83;30.78;97082.34;5080808;28;20031;-32
2022/05/10 05:05:32;;;;;;;0.55;0.52;;;;;;;27.83;30.81;97081.50;5081150;28;20031;-31
2022/05/10 05:07:58;;;;;;;0.50;0.50;;;;;;;27.84;30.64;97086.69;5082507;28;20669;-30
2022/05/10 05:10:24;;;;;;;0.32;0.32;;;;;;;27.84;30.82;97086.69;5081901;28;20036;-31
2022/05/10 05:12:49;;;;;;;0.30;0.30;;;;;;;27.84;30.82;97094.56;5081480;28;20143;-32
2022/05/10 05:15:15;;;;;;;0.40;0.40;;;;;;;27.84;30.93;97105.13;5083216;28;20038;-31
2022/05/10 05:17:40;;;;;;;0.60;0.60;;;;;;;27.84;30.72;97091.94;5082493;28;20106;-29
2022/05/10 05:20:06;;;;;;;0.70;0.43;;;;;;;27.87;30.92;97107.59;5080552;28;20028;-29
2022/05/10 05:22:32;;;;;;;0.68;0.57;;;;;;;27.87;30.81;97112.00;5081831;28;20142;-32
2022/05/10 05:24:57;;;;;;;0.50;0.50;;;;;;;27.86;30.85;97100.63;5079329;28;20028;-31
2022/05/10 05:27:22;;;;;;;0.40;0.40;;;;;;;27.87;30.65;97104.09;5081080;28;20031;-31
2022/05/10 05:29:48;;;;;;;0.43;0.43;;;;;;;27.87;30.70;97109.34;5082976;28;20102;-31
2022/05/10 05:32:13;;;;;;;0.60;0.50;;;;;;;27.87;30.57;97114.63;5084444;28;20036;-31
2022/05/10 05:34:39;;;;;;;0.40;0.40;;;;;;;27.88;30.81;97117.19;5066463;28;20890;-31
2022/05/10 05:39:48;;;;;;;0.40;0.40;;;;;;;27.88;30.68;97117.19;5083071;28;20560;-32
2022/05/10 05:42:14;;;;;;;0.60;0.60;;;;;;;27.88;30.89;97111.91;5080386;28;20035;-31
2022/05/10 05:44:39;;;;;;;0.47;0.47;;;;;;;27.87;30.64;97118.13;5080074;28;20065;-32
2022/05/10 05:47:05;;;;;;;0.40;0.40;;;;;;;27.87;30.76;97115.47;5080967;28;20032;-31
2022/05/10 05:49:30;;;;;;;0.40;0.40;;;;;;;27.87;30.87;97120.75;5082859;28;20040;-30
2022/05/10 05:51:59;;;;;;;0.52;0.52;;;;;;;27.88;30.70;97122.44;5080063;28;20039;-31
2022/05/10 05:54:24;;;;;;;0.30;0.30;;;;;;;27.88;30.68;97122.44;5079713;28;20028;-32
2022/05/10 05:56:50;;;;;;;0.50;0.50;;;;;;;27.87;30.75;97112.84;5080396;28;20039;-31
2022/05/10 05:59:16;;;;;;;0.55;0.55;;;;;;;27.87;30.88;97112.84;5086335;28;20107;-31
2022/05/10 06:01:41;;;;;;;0.50;0.32;;;;;;;27.88;30.70;97116.34;5086570;28;20039;-31
2022/05/10 06:04:06;;;;;;;0.40;0.40;;;;;;;27.89;30.85;97121.50;5083084;28;20054;-30
2022/05/10 06:06:32;;;;;;;0.50;0.50;;;;;;;27.88;30.76;97114.53;5082890;28;20036;-35
2022/05/10 06:08:57;;;;;;;0.52;0.52;;;;;;;27.89;30.70;97115.41;5083717;28;20039;-31
2022/05/10 06:11:23;;;;;;;0.55;0.55;;;;;;;27.89;30.75;97118.03;5082148;28;20024;-29
2022/05/10 06:13:48;;;;;;;0.50;0.50;;;;;;;27.90;30.77;97120.59;5085517;28;20525;-29
2022/05/10 06:16:13;;;;;;;0.40;0.40;;;;;;;27.90;30.90;97117.09;5082277;28;20046;-30
2022/05/10 06:18:39;;;;;;;0.50;0.50;;;;;;;27.90;30.73;97110.06;5082786;28;20027;-31
2022/05/10 06:21:04;;;;;;;0.60;0.60;;;;;;;27.91;30.73;97111.75;5084119;28;20032;-30
2022/05/10 06:23:30;;;;;;;1.27;0.50;;;;;;;27.91;30.78;97114.38;5082083;28;20019;-32
2022/05/10 06:25:55;;;;;;;0.70;0.70;;;;;;;27.91;30.95;97113.50;5081364;28;20038;-31
2022/05/10 06:28:21;;;;;;;0.60;0.60;;;;;;;27.91;30.65;97117.00;5081609;28;20069;-36
2022/05/10 06:30:47;;;;;;;1.50;0.65;;;;;;;27.91;30.82;97122.28;5082252;28;20131;-29
2022/05/10 06:33:12;;;;;;;0.70;0.63;;;;;;;27.91;30.85;97119.66;5084953;28;20983;-30
2022/05/10 06:35:39;;;;;;;0.50;0.50;;;;;;;27.92;30.92;97113.44;5084325;28;20032;-33
2022/05/10 06:38:19;;;;;;;0.60;0.60;;;;;;;27.92;30.85;97113.44;5081743;28;20075;-31
2022/05/10 06:40:47;;;;;;;1.10;0.65;;;;;;;27.92;30.74;97113.44;5083864;28;20031;-30
2022/05/10 06:43:13;;;;;;;0.93;0.82;;;;;;;27.92;30.84;97110.78;5084888;28;20130;-31
2022/05/10 06:45:40;;;;;;;1.00;0.65;;;;;;;27.91;30.97;97117.00;5085862;28;20873;-32
2022/05/10 06:48:05;;;;;;;0.60;0.60;;;;;;;27.92;30.81;97116.06;5081784;28;20032;-31
2022/05/10 06:50:31;;;;;;;0.60;0.60;;;;;;;27.92;30.89;97108.16;5084001;28;20108;-31
2022/05/10 06:53:00;;;;;;;0.70;0.63;;;;;;;27.93;30.95;97109.03;5082034;28;20067;-30
2022/05/10 06:55:27;;;;;;;0.60;0.50;;;;;;;27.92;30.93;97102.91;5085508;28;20020;-29
2022/05/10 06:57:52;;;;;;;0.50;0.50;;;;;;;27.94;30.94;97102.81;5085489;28;20438;-31
2022/05/10 07:00:18;;;;;;;0.60;0.60;;;;;;;27.94;30.84;97112.50;5084725;28;20023;-30
2022/05/10 07:02:43;;;;;;;0.50;0.50;;;;;;;27.94;31.00;97104.59;5085257;28;20054;-29
2022/05/10 07:05:10;;;;;;;0.63;0.63;;;;;;;27.94;30.86;97104.59;5081751;28;20750;-29
2022/05/10 07:07:35;;;;;;;0.90;0.68;;;;;;;27.94;30.71;97105.44;5080202;28;20149;-31
2022/05/10 07:10:01;;;;;;;0.60;0.60;;;;;;;27.94;30.73;97102.81;5082557;28;20036;-30
2022/05/10 07:12:26;;;;;;;0.68;0.68;;;;;;;27.95;30.75;97095.78;5082384;28;20066;-29
2022/05/10 07:14:52;;;;;;;0.60;0.60;;;;;;;27.94;30.93;97088.78;5083203;28;20028;-31
2022/05/10 07:17:17;;;;;;;0.70;0.68;;;;;;;27.96;30.82;97092.19;5081157;28;20661;-30
2022/05/10 07:19:43;;;;;;;0.68;0.68;;;;;;;27.95;30.87;97090.50;5082640;28;20598;-31
2022/05/10 07:22:08;;;;;;;0.60;0.60;;;;;;;27.95;30.81;97090.50;5083358;28;20036;-30
2022/05/10 07:24:33;;;;;;;0.60;0.60;;;;;;;27.96;30.83;97086.94;5083245;28;20020;-31
2022/05/10 07:26:59;;;;;;;0.80;0.80;;;;;;;27.94;30.91;97088.78;5084822;28;20035;-31
2022/05/10 07:29:24;;;;;;;0.60;0.60;;;;;;;27.96;31.11;97093.03;5082540;28;20031;-29
2022/05/10 07:31:50;;;;;;;1.08;0.90;;;;;;;27.96;30.87;97092.19;5079300;28;20026;-31
2022/05/10 07:34:15;;;;;;;0.90;0.90;;;;;;;27.96;30.87;97100.09;5083334;28;20625;-29
2022/05/10 07:36:41;;;;;;;1.00;0.60;;;;;;;27.95;30.85;97101.03;5083315;28;20791;-29
2022/05/10 07:39:08;;;;;;;0.90;0.43;;;;;;;27.95;30.82;97093.13;5084137;28;20039;-33
2022/05/10 07:41:33;;;;;;;1.40;0.63;;;;;;;27.96;31.01;97102.72;5079150;28;20024;-29
2022/05/10 07:43:59;;;;;;;0.95;0.55;;;;;;;27.96;30.95;97102.72;5083181;28;20577;-32
2022/05/10 07:46:24;;;;;;;0.70;0.70;;;;;;;27.97;30.93;97104.41;5081507;28;20024;-29
2022/05/10 07:48:50;;;;;;;0.65;0.65;;;;;;;27.96;30.86;97092.19;5082004;28;20709;-35
2022/05/10 07:51:15;;;;;;;0.60;0.60;;;;;;;27.96;30.97;97100.09;5081181;28;20498;-30
2022/05/10 07:53:42;;;;;;;0.70;0.70;;;;;;;27.96;30.95;97092.19;5082438;28;20032;-31
2022/05/10 07:56:07;;;;;;;0.65;0.60;;;;;;;27.97;30.88;97088.63;5080522;28;20032;-30
2022/05/10 07:58:33;;;;;;;0.63;0.60;;;;;;;27.96;30.85;97093.03;5082203;28;20398;-30
2022/05/10 08:00:59;;;;;;;0.60;0.50;;;;;;;27.96;31.00;97093.03;5082917;28;20027;-33
2022/05/10 08:03:25;;;;;;;1.08;0.70;;;;;;;27.97;30.85;97093.88;5084511;28;20042;-29
2022/05/10 08:05:51;;;;;;;1.00;0.80;;;;;;;27.97;31.07;97089.47;5081372;28;20032;-29
2022/05/10 08:08:17;;;;;;;0.73;0.60;;;;;;;27.98;31.01;97085.03;5080257;28;20076;-30
2022/05/10 08:10:43;;;;;;;0.82;0.82;;;;;;;27.99;31.02;97086.75;5081273;28;20039;-31
2022/05/10 08:13:12;;;;;;;0.50;0.50;;;;;;;27.98;30.97;97085.03;5084333;28;20032;-32
2022/05/10 08:15:38;;;;;;;1.38;0.68;;;;;;;27.98;31.00;97090.31;5085355;28;20035;-31
2022/05/10 08:18:03;;;;;;;0.60;0.60;;;;;;;27.99;30.96;97095.50;5080838;28;20063;-32
2022/05/10 08:20:29;;;;;;;0.88;0.85;;;;;;;27.99;30.98;97084.97;5083003;28;20057;-33
2022/05/10 08:22:54;;;;;;;1.05;0.52;;;;;;;27.99;30.98;97082.31;5083051;28;20046;-29
2022/05/10 08:25:20;;;;;;;0.63;0.63;;;;;;;28.00;31.02;97091.09;5080935;28;20035;-30
2022/05/10 08:27:45;;;;;;;0.60;0.60;;;;;;;27.99;30.95;97087.59;5080609;28;20027;-32
2022/05/10 08:30:11;;;;;;;0.80;0.80;;;;;;;28.01;30.91;97090.13;5082042;27;20461;-31
2022/05/10 08:32:36;;;;;;;0.73;0.73;;;;;;;28.01;31.01;97087.50;5081160;28;20081;-32
2022/05/10 08:35:02;;;;;;;0.55;0.50;;;;;;;28.00;30.89;97084.00;5082282;28;20100;-30
2022/05/10 08:37:27;;;;;;;0.40;0.40;;;;;;;28.01;30.97;97084.88;5083556;28;20587;-31
2022/05/10 08:39:53;;;;;;;1.30;0.60;;;;;;;28.01;31.17;97080.47;5081845;28;20534;-34
2022/05/10 08:42:26;;;;;;;0.50;0.50;;;;;;;28.02;31.10;97081.28;5082108;28;20034;-31
2022/05/10 08:45:00;;;;;;;1.02;0.93;;;;;;;28.02;31.15;97078.66;5087238;28;20032;-32
2022/05/10 08:47:25;;;;;;;1.33;0.68;;;;;;;28.02;31.03;97074.25;5080340;28;20122;-32
2022/05/10 08:49:58;;;;;;;0.70;0.70;;;;;;;28.02;31.07;97076.88;5080381;28;20034;-30
2022/05/10 08:52:26;;;;;;;0.60;0.60;;;;;;;28.03;30.88;97072.44;5077364;28;20139;-33
2022/05/10 08:54:52;;;;;;;0.60;0.60;;;;;;;28.03;31.18;97077.72;5073494;28;20135;-30
2022/05/10 08:57:31;;;;;;;0.88;0.80;;;;;;;28.01;31.03;97063.78;5081910;28;20031;-32
2022/05/10 09:00:10;;;;;;;0.60;0.60;;;;;;;28.04;31.10;97074.16;5080974;28;20028;-33
2022/05/10 09:02:45;;;;;;;1.60;0.55;;;;;;;28.03;31.17;97073.31;5084060;28;20527;-33
2022/05/10 09:05:17;;;;;;;1.95;0.70;;;;;;;28.03;31.08;97073.31;5082863;28;20028;-41
2022/05/10 09:08:13;;;;;;;0.60;0.60;;;;;;;28.04;31.08;97074.16;5080762;28;20081;-30
2022/05/10 09:10:41;;;;;;;0.52;0.52;;;;;;;28.04;31.21;97075.00;5081423;28;20032;-31
2022/05/10 09:13:10;;;;;;;0.50;0.50;;;;;;;28.04;31.25;97075.00;5082335;28;20033;-32
2022/05/10 09:15:59;;;;;;;0.60;0.60;;;;;;;28.05;31.04;97070.59;5082358;28;20131;-31
2022/05/10 09:18:27;;;;;;;0.52;0.50;;;;;;;28.05;31.22;97078.50;5083375;28;20023;-32
2022/05/10 09:21:11;;;;;;;0.40;0.40;;;;;;;28.06;30.94;97077.53;5083244;28;20081;-33
2022/05/10 09:24:13;;;;;;;0.70;0.70;;;;;;;28.06;31.10;97077.53;5084392;28;21050;-31
2022/05/10 09:26:39;;;;;;;0.70;0.70;;;;;;;28.05;31.23;97067.94;5080234;28;20557;-32
2022/05/10 09:29:10;;;;;;;0.70;0.68;;;;;;;28.05;31.27;97065.31;5080833;28;20034;-32
2022/05/10 09:37:14;;;;;;;0.45;0.45;;;;;;;28.07;31.13;97058.16;5087110;28;20069;-31
2022/05/10 09:39:44;;;;;;;0.98;0.80;;;;;;;28.06;31.18;97056.47;5085549;28;20238;-30
2022/05/10 09:42:09;;;;;;;0.40;0.40;;;;;;;28.07;31.23;97060.78;5087093;28;20119;-31
2022/05/10 09:44:35;;;;;;;0.73;0.60;;;;;;;28.07;31.14;97052.88;5082820;28;20484;-30
2022/05/10 09:47:13;;;;;;;0.73;0.70;;;;;;;28.08;31.21;97059.03;5084871;28;20066;-36
2022/05/10 09:49:39;;;;;;;0.60;0.60;;;;;;;28.09;31.14;97058.94;5084469;28;20043;-29
2022/05/10 09:52:05;;;;;;;0.63;0.63;;;;;;;28.09;31.19;97050.16;5081617;28;20398;-34
2022/05/10 09:54:38;;;;;;;0.47;0.47;;;;;;;28.10;31.31;97046.63;5085143;28;20036;-31
2022/05/10 09:57:05;;;;;;;0.50;0.50;;;;;;;28.10;31.19;97047.44;5087672;28;20497;-33
2022/05/10 09:59:38;;;;;;;0.52;0.52;;;;;;;28.11;31.28;97050.94;5078647;28;20038;-31
2022/05/10 10:02:03;;;;;;;0.50;0.50;;;;;;;28.11;31.23;97051.78;5071589;28;20162;-32
2022/05/10 10:04:37;;;;;;;0.50;0.50;;;;;;;28.12;31.21;97048.22;5087515;28;20020;-31
2022/05/10 10:07:08;;;;;;;0.55;0.55;;;;;;;28.11;31.25;97043.88;5084811;28;20036;-31
2022/05/10 10:09:38;;;;;;;0.55;0.55;;;;;;;28.13;31.22;97042.00;5083156;28;20054;-30
2022/05/10 10:12:04;;;;;;;0.50;0.50;;;;;;;28.13;31.30;97042.00;5081712;28;20097;-30
2022/05/10 10:14:38;;;;;;;0.30;0.30;;;;;;;28.14;31.33;97043.69;5086116;28;20032;-32
2022/05/10 10:17:07;;;;;;;0.73;0.60;;;;;;;28.13;31.35;97044.66;5085233;28;20063;-31
2022/05/10 10:19:43;;;;;;;0.60;0.60;;;;;;;28.14;31.35;97038.44;5086862;28;20713;-31
2022/05/10 10:22:10;;;;;;;0.70;0.70;;;;;;;28.15;31.03;97034.84;5084854;28;20040;-31
2022/05/10 10:24:56;;;;;;;0.40;0.40;;;;;;;28.14;31.31;97033.16;5086821;28;20109;-31
2022/05/10 10:27:42;;;;;;;0.50;0.50;;;;;;;28.15;31.21;97029.56;5088970;28;20043;-30
2022/05/10 10:30:27;;;;;;;0.50;0.50;;;;;;;28.15;31.33;97029.56;5083784;28;20838;-32
2022/05/10 10:32:59;;;;;;;0.50;0.50;;;;;;;28.16;31.52;97028.66;5088321;28;20760;-31
2022/05/10 10:35:38;;;;;;;0.55;0.55;;;;;;;28.16;31.16;97020.75;5085350;28;20089;-33
2022/05/10 10:38:29;;;;;;;0.60;0.60;;;;;;;28.16;31.27;97026.03;5068511;28;20119;-36
2022/05/10 10:41:01;;;;;;;0.60;0.60;;;;;;;28.18;31.28;97023.28;5082077;28;20035;-31
2022/05/10 10:43:47;;;;;;;0.57;0.57;;;;;;;28.17;31.39;97019.81;5082083;28;20415;-32
2022/05/10 10:46:32;;;;;;;0.47;0.40;;;;;;;28.17;31.29;97019.81;5085011;28;20032;-32
2022/05/10 10:49:12;;;;;;;0.30;0.30;;;;;;;28.17;31.22;97017.19;5084060;28;20036;-33
2022/05/10 10:51:37;;;;;;;1.15;0.50;;;;;;;28.16;31.41;97009.38;5080489;28;20035;-33
2022/05/10 10:54:03;;;;;;;0.60;0.60;;;;;;;28.18;31.29;97010.97;5082794;28;20031;-35
2022/05/10 10:56:38;;;;;;;0.57;0.50;;;;;;;28.18;31.33;97012.75;5062011;28;20035;-31
2022/05/10 10:59:10;;;;;;;0.73;0.73;;;;;;;28.17;31.31;97011.91;5081254;28;20035;-31
2022/05/10 11:02:02;;;;;;;0.40;0.40;;;;;;;28.17;31.31;97009.28;5082026;28;20030;-31
2022/05/10 11:04:41;;;;;;;0.68;0.68;;;;;;;28.18;31.41;97005.69;5063957;28;20951;-31
2022/05/10 11:07:18;;;;;;;0.55;0.50;;;;;;;28.20;31.39;97007.38;5083929;28;20048;-32
2022/05/10 11:09:54;;;;;;;0.50;0.50;;;;;;;28.18;31.28;97005.69;5086149;28;20103;-32
2022/05/10 11:12:58;;;;;;;0.50;0.50;;;;;;;28.20;31.42;96999.47;5085803;28;20032;-30
2022/05/10 11:15:54;;;;;;;0.50;0.50;;;;;;;28.19;31.45;96993.38;5070731;28;20120;-41
2022/05/10 11:18:26;;;;;;;0.35;0.35;;;;;;;28.18;31.26;96981.13;5083813;28;20032;-33
2022/05/10 11:21:19;;;;;;;0.60;0.60;;;;;;;28.20;31.37;96987.16;5083033;28;20043;-32
2022/05/10 11:24:07;;;;;;;0.65;0.50;;;;;;;28.20;31.34;96983.66;5081537;28;20038;-34
2022/05/10 11:26:43;;;;;;;0.50;0.50;;;;;;;28.21;31.38;96982.72;5073983;28;20040;-31
2022/05/10 11:29:36;;;;;;;0.50;0.50;;;;;;;28.21;31.53;96985.34;5082659;28;20154;-30
2022/05/10 11:32:08;;;;;;;0.55;0.55;;;;;;;28.20;31.40;96981.03;5085007;28;20024;-30
2022/05/10 11:34:42;;;;;;;0.90;0.50;;;;;;;28.21;31.27;96974.81;5082082;28;20069;-31
2022/05/10 11:37:11;;;;;;;0.55;0.55;;;;;;;28.21;31.55;96969.53;5085134;28;20123;-32
2022/05/10 11:39:57;;;;;;;0.50;0.50;;;;;;;28.22;31.51;96966.00;5068993;28;20028;-31
2022/05/10 11:42:39;;;;;;;0.63;0.60;;;;;;;28.21;31.44;96973.03;5081720;28;20028;-33
2022/05/10 11:45:32;;;;;;;0.40;0.40;;;;;;;28.22;31.48;96973.91;5087965;28;20036;-31
2022/05/10 11:48:25;;;;;;;2.40;0.57;;;;;;;28.23;31.44;96962.41;5084309;28;20039;-32
2022/05/10 11:53:59;;;;;;;;;;;;;;;28.23;31.44;96965.03;5082331;28;20128;-32
2022/05/10 11:56:26;;;;;;;0.60;0.50;;;;;;;28.22;31.25;96958.09;5084286;28;20397;-32
2022/05/10 11:58:51;;;;;;;0.40;0.40;;;;;;;28.23;31.41;96965.03;5081857;28;20074;-32
2022/05/10 12:01:54;;;;;;;0.93;0.70;;;;;;;28.23;31.42;96965.03;5066579;28;20036;-33
2022/05/10 12:04:45;;;;;;;0.38;0.38;;;;;;;28.22;31.43;96960.72;5085719;28;20043;-32